sensor_id;sensor_type;location;lat;lon;timestamp;P1;durP1;ratioP1;P2;durP2;ratioP2
84517;SDS011;74754;43.386;0.044;2024-03-08T00:02:00;10.38;;;3.17;;
84517;SDS011;74754;43.386;0.044;2024-03-08T00:06:52;17.55;;;2.63;;
84517;SDS011;74754;43.386;0.044;2024-03-08T00:09:18;9.35;;;3.13;;
84517;SDS011;74754;43.386;0.044;2024-03-08T00:11:44;6.07;;;4.07;;
84517;SDS011;74754;43.386;0.044;2024-03-08T00:14:11;6.22;;;3.28;;
84517;SDS011;74754;43.386;0.044;2024-03-08T00:16:37;3.30;;;3.00;;
84517;SDS011;74754;43.386;0.044;2024-03-08T00:19:03;18.23;;;3.90;;
84517;SDS011;74754;43.386;0.044;2024-03-08T00:21:30;9.07;;;4.65;;
84517;SDS011;74754;43.386;0.044;2024-03-08T00:23:56;11.82;;;4.15;;
84517;SDS011;74754;43.386;0.044;2024-03-08T00:26:22;5.82;;;3.63;;
84517;SDS011;74754;43.386;0.044;2024-03-08T00:28:48;7.60;;;4.15;;
84517;SDS011;74754;43.386;0.044;2024-03-08T00:31:14;7.07;;;4.15;;
84517;SDS011;74754;43.386;0.044;2024-03-08T00:33:42;6.72;;;3.72;;
84517;SDS011;74754;43.386;0.044;2024-03-08T00:38:34;6.13;;;3.70;;
84517;SDS011;74754;43.386;0.044;2024-03-08T00:41:00;10.32;;;4.20;;
84517;SDS011;74754;43.386;0.044;2024-03-08T00:43:27;6.22;;;4.10;;
84517;SDS011;74754;43.386;0.044;2024-03-08T00:45:55;10.45;;;4.38;;
84517;SDS011;74754;43.386;0.044;2024-03-08T00:48:22;7.45;;;3.97;;
84517;SDS011;74754;43.386;0.044;2024-03-08T00:50:49;13.35;;;3.70;;
84517;SDS011;74754;43.386;0.044;2024-03-08T00:53:15;11.57;;;3.92;;
84517;SDS011;74754;43.386;0.044;2024-03-08T00:55:42;15.07;;;3.90;;
84517;SDS011;74754;43.386;0.044;2024-03-08T00:58:09;17.35;;;4.60;;
84517;SDS011;74754;43.386;0.044;2024-03-08T01:00:35;17.25;;;4.10;;
84517;SDS011;74754;43.386;0.044;2024-03-08T01:03:04;6.57;;;5.07;;
84517;SDS011;74754;43.386;0.044;2024-03-08T01:05:30;12.45;;;4.43;;
84517;SDS011;74754;43.386;0.044;2024-03-08T01:07:56;8.20;;;4.10;;
84517;SDS011;74754;43.386;0.044;2024-03-08T01:10:22;9.27;;;4.15;;
84517;SDS011;74754;43.386;0.044;2024-03-08T01:12:48;7.45;;;3.78;;
84517;SDS011;74754;43.386;0.044;2024-03-08T01:15:15;7.30;;;4.22;;
84517;SDS011;74754;43.386;0.044;2024-03-08T01:17:41;14.35;;;3.58;;
84517;SDS011;74754;43.386;0.044;2024-03-08T01:20:08;7.47;;;3.17;;
84517;SDS011;74754;43.386;0.044;2024-03-08T01:22:37;9.07;;;4.10;;
84517;SDS011;74754;43.386;0.044;2024-03-08T01:27:30;11.00;;;3.65;;
84517;SDS011;74754;43.386;0.044;2024-03-08T01:29:56;6.20;;;4.60;;
84517;SDS011;74754;43.386;0.044;2024-03-08T01:32:24;13.77;;;6.22;;
84517;SDS011;74754;43.386;0.044;2024-03-08T01:34:50;12.38;;;6.00;;
84517;SDS011;74754;43.386;0.044;2024-03-08T01:39:42;5.60;;;3.65;;
84517;SDS011;74754;43.386;0.044;2024-03-08T01:42:09;6.03;;;3.42;;
84517;SDS011;74754;43.386;0.044;2024-03-08T01:44:38;12.82;;;2.95;;
84517;SDS011;74754;43.386;0.044;2024-03-08T01:47:04;15.07;;;3.70;;
84517;SDS011;74754;43.386;0.044;2024-03-08T01:49:31;6.47;;;2.95;;
84517;SDS011;74754;43.386;0.044;2024-03-08T01:51:58;7.15;;;3.33;;
84517;SDS011;74754;43.386;0.044;2024-03-08T01:54:24;6.70;;;3.17;;
84517;SDS011;74754;43.386;0.044;2024-03-08T01:56:52;8.07;;;3.05;;
84517;SDS011;74754;43.386;0.044;2024-03-08T01:59:22;9.52;;;4.25;;
84517;SDS011;74754;43.386;0.044;2024-03-08T02:01:48;9.50;;;3.63;;
84517;SDS011;74754;43.386;0.044;2024-03-08T02:04:15;6.72;;;2.70;;
84517;SDS011;74754;43.386;0.044;2024-03-08T02:06:41;3.30;;;2.25;;
84517;SDS011;74754;43.386;0.044;2024-03-08T02:09:07;6.03;;;2.58;;
84517;SDS011;74754;43.386;0.044;2024-03-08T02:11:33;5.47;;;2.50;;
84517;SDS011;74754;43.386;0.044;2024-03-08T02:14:01;7.00;;;3.28;;
84517;SDS011;74754;43.386;0.044;2024-03-08T02:18:53;12.30;;;3.53;;
84517;SDS011;74754;43.386;0.044;2024-03-08T02:21:19;8.77;;;2.97;;
84517;SDS011;74754;43.386;0.044;2024-03-08T02:23:46;8.00;;;2.97;;
84517;SDS011;74754;43.386;0.044;2024-03-08T02:26:12;7.22;;;3.47;;
84517;SDS011;74754;43.386;0.044;2024-03-08T02:28:38;6.72;;;2.78;;
84517;SDS011;74754;43.386;0.044;2024-03-08T02:31:07;11.32;;;3.45;;
84517;SDS011;74754;43.386;0.044;2024-03-08T02:33:33;6.32;;;2.60;;
84517;SDS011;74754;43.386;0.044;2024-03-08T02:35:59;7.15;;;2.58;;
84517;SDS011;74754;43.386;0.044;2024-03-08T02:38:25;6.35;;;2.72;;
84517;SDS011;74754;43.386;0.044;2024-03-08T02:40:52;5.25;;;2.53;;
84517;SDS011;74754;43.386;0.044;2024-03-08T02:43:20;4.22;;;2.38;;
84517;SDS011;74754;43.386;0.044;2024-03-08T02:45:49;11.13;;;2.90;;
84517;SDS011;74754;43.386;0.044;2024-03-08T02:48:15;4.38;;;2.38;;
84517;SDS011;74754;43.386;0.044;2024-03-08T02:50:41;10.52;;;2.33;;
84517;SDS011;74754;43.386;0.044;2024-03-08T02:53:09;8.98;;;3.25;;
84517;SDS011;74754;43.386;0.044;2024-03-08T02:55:36;13.13;;;2.83;;
84517;SDS011;74754;43.386;0.044;2024-03-08T02:58:02;2.90;;;2.20;;
84517;SDS011;74754;43.386;0.044;2024-03-08T03:00:29;9.23;;;2.97;;
84517;SDS011;74754;43.386;0.044;2024-03-08T03:02:59;7.63;;;2.97;;
84517;SDS011;74754;43.386;0.044;2024-03-08T03:05:28;6.75;;;3.05;;
84517;SDS011;74754;43.386;0.044;2024-03-08T03:07:54;9.05;;;2.95;;
84517;SDS011;74754;43.386;0.044;2024-03-08T03:10:20;12.70;;;3.22;;
84517;SDS011;74754;43.386;0.044;2024-03-08T03:12:47;3.50;;;2.60;;
84517;SDS011;74754;43.386;0.044;2024-03-08T03:15:16;4.50;;;2.25;;
84517;SDS011;74754;43.386;0.044;2024-03-08T03:17:46;11.55;;;2.78;;
84517;SDS011;74754;43.386;0.044;2024-03-08T03:20:13;9.15;;;3.75;;
84517;SDS011;74754;43.386;0.044;2024-03-08T03:25:06;8.98;;;3.00;;
84517;SDS011;74754;43.386;0.044;2024-03-08T03:27:32;6.50;;;2.65;;
84517;SDS011;74754;43.386;0.044;2024-03-08T03:29:58;13.02;;;2.30;;
84517;SDS011;74754;43.386;0.044;2024-03-08T03:32:44;8.52;;;2.45;;
84517;SDS011;74754;43.386;0.044;2024-03-08T03:35:12;6.80;;;1.83;;
84517;SDS011;74754;43.386;0.044;2024-03-08T03:37:39;7.40;;;2.00;;
84517;SDS011;74754;43.386;0.044;2024-03-08T03:40:08;12.48;;;2.60;;
84517;SDS011;74754;43.386;0.044;2024-03-08T03:42:34;8.32;;;2.42;;
84517;SDS011;74754;43.386;0.044;2024-03-08T03:45:04;6.50;;;2.55;;
84517;SDS011;74754;43.386;0.044;2024-03-08T03:47:30;4.78;;;2.38;;
84517;SDS011;74754;43.386;0.044;2024-03-08T03:49:56;7.47;;;2.70;;
84517;SDS011;74754;43.386;0.044;2024-03-08T03:52:27;11.38;;;2.72;;
84517;SDS011;74754;43.386;0.044;2024-03-08T03:54:53;7.25;;;2.60;;
84517;SDS011;74754;43.386;0.044;2024-03-08T03:57:19;8.40;;;2.70;;
84517;SDS011;74754;43.386;0.044;2024-03-08T03:59:48;3.97;;;2.33;;
84517;SDS011;74754;43.386;0.044;2024-03-08T04:02:16;9.35;;;2.75;;
84517;SDS011;74754;43.386;0.044;2024-03-08T04:04:42;3.15;;;2.60;;
84517;SDS011;74754;43.386;0.044;2024-03-08T04:07:10;6.05;;;2.70;;
84517;SDS011;74754;43.386;0.044;2024-03-08T04:09:36;7.93;;;3.00;;
84517;SDS011;74754;43.386;0.044;2024-03-08T04:12:03;4.22;;;2.22;;
84517;SDS011;74754;43.386;0.044;2024-03-08T04:14:29;8.52;;;2.60;;
84517;SDS011;74754;43.386;0.044;2024-03-08T04:16:55;7.55;;;2.72;;
84517;SDS011;74754;43.386;0.044;2024-03-08T04:21:47;7.75;;;2.40;;
84517;SDS011;74754;43.386;0.044;2024-03-08T04:24:13;9.38;;;2.90;;
84517;SDS011;74754;43.386;0.044;2024-03-08T04:26:40;3.90;;;2.30;;
84517;SDS011;74754;43.386;0.044;2024-03-08T04:29:06;6.10;;;1.75;;
84517;SDS011;74754;43.386;0.044;2024-03-08T04:31:32;5.18;;;2.17;;
84517;SDS011;74754;43.386;0.044;2024-03-08T04:33:58;6.40;;;2.72;;
84517;SDS011;74754;43.386;0.044;2024-03-08T04:36:24;6.85;;;2.20;;
84517;SDS011;74754;43.386;0.044;2024-03-08T04:38:50;4.72;;;2.40;;
84517;SDS011;74754;43.386;0.044;2024-03-08T04:41:17;9.98;;;2.10;;
84517;SDS011;74754;43.386;0.044;2024-03-08T04:43:43;6.65;;;2.00;;
84517;SDS011;74754;43.386;0.044;2024-03-08T04:46:09;8.32;;;1.98;;
84517;SDS011;74754;43.386;0.044;2024-03-08T04:48:35;6.68;;;2.50;;
84517;SDS011;74754;43.386;0.044;2024-03-08T04:51:02;8.25;;;2.35;;
84517;SDS011;74754;43.386;0.044;2024-03-08T04:53:29;13.40;;;2.28;;
84517;SDS011;74754;43.386;0.044;2024-03-08T04:55:57;8.90;;;2.88;;
84517;SDS011;74754;43.386;0.044;2024-03-08T04:58:23;5.25;;;2.58;;
84517;SDS011;74754;43.386;0.044;2024-03-08T05:00:49;11.20;;;2.55;;
84517;SDS011;74754;43.386;0.044;2024-03-08T05:05:41;4.68;;;2.17;;
84517;SDS011;74754;43.386;0.044;2024-03-08T05:08:07;8.48;;;2.72;;
84517;SDS011;74754;43.386;0.044;2024-03-08T05:10:34;8.80;;;2.10;;
84517;SDS011;74754;43.386;0.044;2024-03-08T05:13:00;6.68;;;2.72;;
84517;SDS011;74754;43.386;0.044;2024-03-08T05:15:26;6.70;;;2.60;;
84517;SDS011;74754;43.386;0.044;2024-03-08T05:17:52;5.97;;;2.97;;
84517;SDS011;74754;43.386;0.044;2024-03-08T05:20:18;15.55;;;3.35;;
84517;SDS011;74754;43.386;0.044;2024-03-08T05:22:44;11.27;;;2.63;;
84517;SDS011;74754;43.386;0.044;2024-03-08T05:25:11;6.80;;;2.67;;
84517;SDS011;74754;43.386;0.044;2024-03-08T05:27:39;5.28;;;2.50;;
84517;SDS011;74754;43.386;0.044;2024-03-08T05:30:05;9.75;;;3.70;;
84517;SDS011;74754;43.386;0.044;2024-03-08T05:34:58;4.15;;;2.40;;
84517;SDS011;74754;43.386;0.044;2024-03-08T05:37:24;9.07;;;2.78;;
84517;SDS011;74754;43.386;0.044;2024-03-08T05:39:50;6.15;;;2.53;;
84517;SDS011;74754;43.386;0.044;2024-03-08T05:42:16;9.88;;;2.72;;
84517;SDS011;74754;43.386;0.044;2024-03-08T05:44:42;8.38;;;2.55;;
84517;SDS011;74754;43.386;0.044;2024-03-08T05:47:08;10.98;;;2.75;;
84517;SDS011;74754;43.386;0.044;2024-03-08T05:49:36;6.40;;;2.63;;
84517;SDS011;74754;43.386;0.044;2024-03-08T05:52:02;7.85;;;2.53;;
84517;SDS011;74754;43.386;0.044;2024-03-08T05:54:28;17.67;;;2.75;;
84517;SDS011;74754;43.386;0.044;2024-03-08T05:56:54;22.40;;;3.20;;
84517;SDS011;74754;43.386;0.044;2024-03-08T05:59:20;10.43;;;2.85;;
84517;SDS011;74754;43.386;0.044;2024-03-08T06:01:48;3.97;;;2.70;;
84517;SDS011;74754;43.386;0.044;2024-03-08T06:04:14;4.10;;;2.40;;
84517;SDS011;74754;43.386;0.044;2024-03-08T06:06:43;6.75;;;3.00;;
84517;SDS011;74754;43.386;0.044;2024-03-08T06:09:09;3.95;;;2.40;;
84517;SDS011;74754;43.386;0.044;2024-03-08T06:11:39;5.93;;;2.90;;
84517;SDS011;74754;43.386;0.044;2024-03-08T06:14:06;6.15;;;2.53;;
84517;SDS011;74754;43.386;0.044;2024-03-08T06:16:32;7.38;;;3.28;;
84517;SDS011;74754;43.386;0.044;2024-03-08T06:18:58;7.00;;;2.47;;
84517;SDS011;74754;43.386;0.044;2024-03-08T06:21:27;13.70;;;2.40;;
84517;SDS011;74754;43.386;0.044;2024-03-08T06:23:53;9.88;;;2.95;;
84517;SDS011;74754;43.386;0.044;2024-03-08T06:26:20;6.00;;;2.13;;
84517;SDS011;74754;43.386;0.044;2024-03-08T06:28:47;3.95;;;2.75;;
84517;SDS011;74754;43.386;0.044;2024-03-08T06:31:13;3.55;;;2.47;;
84517;SDS011;74754;43.386;0.044;2024-03-08T06:33:40;7.40;;;2.53;;
84517;SDS011;74754;43.386;0.044;2024-03-08T06:36:06;12.40;;;3.67;;
84517;SDS011;74754;43.386;0.044;2024-03-08T06:38:32;14.05;;;7.50;;
84517;SDS011;74754;43.386;0.044;2024-03-08T06:40:58;9.40;;;6.50;;
84517;SDS011;74754;43.386;0.044;2024-03-08T06:43:26;10.38;;;6.43;;
84517;SDS011;74754;43.386;0.044;2024-03-08T06:45:59;25.30;;;6.68;;
84517;SDS011;74754;43.386;0.044;2024-03-08T06:48:25;10.15;;;7.63;;
84517;SDS011;74754;43.386;0.044;2024-03-08T06:50:51;9.55;;;6.35;;
84517;SDS011;74754;43.386;0.044;2024-03-08T06:53:17;12.10;;;6.68;;
84517;SDS011;74754;43.386;0.044;2024-03-08T06:55:47;6.47;;;4.38;;
84517;SDS011;74754;43.386;0.044;2024-03-08T06:58:13;13.30;;;4.03;;
84517;SDS011;74754;43.386;0.044;2024-03-08T07:00:39;11.45;;;3.72;;
84517;SDS011;74754;43.386;0.044;2024-03-08T07:03:08;8.63;;;3.35;;
84517;SDS011;74754;43.386;0.044;2024-03-08T07:05:37;7.07;;;3.85;;
84517;SDS011;74754;43.386;0.044;2024-03-08T07:08:05;7.97;;;5.22;;
84517;SDS011;74754;43.386;0.044;2024-03-08T07:10:31;5.30;;;3.90;;
84517;SDS011;74754;43.386;0.044;2024-03-08T07:12:57;5.95;;;3.85;;
84517;SDS011;74754;43.386;0.044;2024-03-08T07:15:25;7.03;;;3.85;;
84517;SDS011;74754;43.386;0.044;2024-03-08T07:17:52;8.93;;;4.15;;
84517;SDS011;74754;43.386;0.044;2024-03-08T07:20:18;4.78;;;3.72;;
84517;SDS011;74754;43.386;0.044;2024-03-08T07:22:48;7.93;;;3.83;;
84517;SDS011;74754;43.386;0.044;2024-03-08T07:25:17;14.23;;;4.60;;
84517;SDS011;74754;43.386;0.044;2024-03-08T07:30:16;8.68;;;3.05;;
84517;SDS011;74754;43.386;0.044;2024-03-08T07:33:01;8.02;;;2.45;;
84517;SDS011;74754;43.386;0.044;2024-03-08T07:35:28;5.07;;;2.78;;
84517;SDS011;74754;43.386;0.044;2024-03-08T07:37:54;5.20;;;2.83;;
84517;SDS011;74754;43.386;0.044;2024-03-08T07:42:46;12.13;;;2.88;;
84517;SDS011;74754;43.386;0.044;2024-03-08T07:45:13;9.65;;;2.42;;
84517;SDS011;74754;43.386;0.044;2024-03-08T07:50:05;6.45;;;2.63;;
84517;SDS011;74754;43.386;0.044;2024-03-08T07:52:33;8.15;;;2.67;;
84517;SDS011;74754;43.386;0.044;2024-03-08T07:55:00;7.22;;;3.08;;
84517;SDS011;74754;43.386;0.044;2024-03-08T07:57:26;5.78;;;3.25;;
84517;SDS011;74754;43.386;0.044;2024-03-08T07:59:54;9.32;;;3.88;;
84517;SDS011;74754;43.386;0.044;2024-03-08T08:02:21;7.55;;;3.60;;
84517;SDS011;74754;43.386;0.044;2024-03-08T08:04:47;3.45;;;2.88;;
84517;SDS011;74754;43.386;0.044;2024-03-08T08:07:13;6.28;;;2.85;;
84517;SDS011;74754;43.386;0.044;2024-03-08T08:12:07;16.58;;;6.05;;
84517;SDS011;74754;43.386;0.044;2024-03-08T08:14:37;10.95;;;5.18;;
84517;SDS011;74754;43.386;0.044;2024-03-08T08:17:04;5.57;;;3.30;;
84517;SDS011;74754;43.386;0.044;2024-03-08T08:19:30;12.20;;;2.95;;
84517;SDS011;74754;43.386;0.044;2024-03-08T08:21:57;6.75;;;2.35;;
84517;SDS011;74754;43.386;0.044;2024-03-08T08:24:23;5.35;;;2.53;;
84517;SDS011;74754;43.386;0.044;2024-03-08T08:29:15;6.18;;;2.45;;
84517;SDS011;74754;43.386;0.044;2024-03-08T08:31:41;4.72;;;2.88;;
84517;SDS011;74754;43.386;0.044;2024-03-08T08:34:11;4.07;;;2.65;;
84517;SDS011;74754;43.386;0.044;2024-03-08T08:36:37;6.35;;;2.38;;
84517;SDS011;74754;43.386;0.044;2024-03-08T08:39:04;4.18;;;2.17;;
84517;SDS011;74754;43.386;0.044;2024-03-08T08:41:36;6.15;;;2.67;;
84517;SDS011;74754;43.386;0.044;2024-03-08T08:44:02;5.38;;;2.60;;
84517;SDS011;74754;43.386;0.044;2024-03-08T08:46:28;6.63;;;2.63;;
84517;SDS011;74754;43.386;0.044;2024-03-08T08:48:54;10.55;;;2.72;;
84517;SDS011;74754;43.386;0.044;2024-03-08T08:51:21;9.40;;;3.55;;
84517;SDS011;74754;43.386;0.044;2024-03-08T08:53:48;14.48;;;3.03;;
84517;SDS011;74754;43.386;0.044;2024-03-08T08:56:15;10.32;;;3.30;;
84517;SDS011;74754;43.386;0.044;2024-03-08T08:58:43;15.60;;;8.30;;
84517;SDS011;74754;43.386;0.044;2024-03-08T09:01:10;14.02;;;7.00;;
84517;SDS011;74754;43.386;0.044;2024-03-08T09:03:36;9.20;;;5.60;;
84517;SDS011;74754;43.386;0.044;2024-03-08T09:06:08;7.93;;;5.45;;
84517;SDS011;74754;43.386;0.044;2024-03-08T09:08:38;7.72;;;4.32;;
84517;SDS011;74754;43.386;0.044;2024-03-08T09:11:04;10.02;;;4.10;;
84517;SDS011;74754;43.386;0.044;2024-03-08T09:13:31;9.15;;;3.30;;
84517;SDS011;74754;43.386;0.044;2024-03-08T09:15:58;9.65;;;3.65;;
84517;SDS011;74754;43.386;0.044;2024-03-08T09:18:24;6.28;;;3.63;;
84517;SDS011;74754;43.386;0.044;2024-03-08T09:23:21;10.32;;;6.25;;
84517;SDS011;74754;43.386;0.044;2024-03-08T09:25:47;6.63;;;5.15;;
84517;SDS011;74754;43.386;0.044;2024-03-08T09:28:14;7.85;;;4.35;;
84517;SDS011;74754;43.386;0.044;2024-03-08T09:30:41;8.43;;;3.80;;
84517;SDS011;74754;43.386;0.044;2024-03-08T09:33:08;11.40;;;3.67;;
84517;SDS011;74754;43.386;0.044;2024-03-08T09:35:34;9.23;;;3.60;;
84517;SDS011;74754;43.386;0.044;2024-03-08T09:38:01;6.68;;;3.78;;
84517;SDS011;74754;43.386;0.044;2024-03-08T09:40:28;6.32;;;4.18;;
84517;SDS011;74754;43.386;0.044;2024-03-08T09:42:54;6.93;;;4.10;;
84517;SDS011;74754;43.386;0.044;2024-03-08T09:45:22;7.38;;;2.97;;
84517;SDS011;74754;43.386;0.044;2024-03-08T09:47:50;6.13;;;3.13;;
84517;SDS011;74754;43.386;0.044;2024-03-08T09:50:16;9.18;;;3.15;;
84517;SDS011;74754;43.386;0.044;2024-03-08T09:52:43;7.68;;;3.85;;
84517;SDS011;74754;43.386;0.044;2024-03-08T09:55:12;10.23;;;4.88;;
84517;SDS011;74754;43.386;0.044;2024-03-08T10:00:04;4.80;;;4.30;;
84517;SDS011;74754;43.386;0.044;2024-03-08T10:02:46;6.43;;;2.97;;
84517;SDS011;74754;43.386;0.044;2024-03-08T10:05:13;4.57;;;2.95;;
84517;SDS011;74754;43.386;0.044;2024-03-08T10:07:39;7.15;;;6.05;;
84517;SDS011;74754;43.386;0.044;2024-03-08T10:12:34;6.90;;;5.75;;
84517;SDS011;74754;43.386;0.044;2024-03-08T10:15:00;7.97;;;2.92;;
84517;SDS011;74754;43.386;0.044;2024-03-08T10:19:57;3.10;;;1.92;;
84517;SDS011;74754;43.386;0.044;2024-03-08T10:22:25;7.93;;;2.17;;
84517;SDS011;74754;43.386;0.044;2024-03-08T10:24:51;6.45;;;1.35;;
84517;SDS011;74754;43.386;0.044;2024-03-08T10:27:17;7.75;;;2.03;;
84517;SDS011;74754;43.386;0.044;2024-03-08T10:29:50;4.85;;;2.22;;
84517;SDS011;74754;43.386;0.044;2024-03-08T10:32:16;7.93;;;1.80;;
84517;SDS011;74754;43.386;0.044;2024-03-08T10:37:12;3.30;;;2.40;;
84517;SDS011;74754;43.386;0.044;2024-03-08T10:39:44;9.57;;;1.95;;
84517;SDS011;74754;43.386;0.044;2024-03-08T10:42:13;2.80;;;1.20;;
84517;SDS011;74754;43.386;0.044;2024-03-08T10:45:05;5.97;;;1.38;;
84517;SDS011;74754;43.386;0.044;2024-03-08T10:47:33;1.92;;;1.15;;
84517;SDS011;74754;43.386;0.044;2024-03-08T10:52:29;2.03;;;1.20;;
84517;SDS011;74754;43.386;0.044;2024-03-08T10:54:56;3.28;;;1.17;;
84517;SDS011;74754;43.386;0.044;2024-03-08T10:57:24;2.60;;;1.23;;
84517;SDS011;74754;43.386;0.044;2024-03-08T11:02:17;1.95;;;1.20;;
84517;SDS011;74754;43.386;0.044;2024-03-08T11:04:50;2.47;;;1.38;;
84517;SDS011;74754;43.386;0.044;2024-03-08T11:07:19;4.70;;;1.50;;
84517;SDS011;74754;43.386;0.044;2024-03-08T11:09:47;4.05;;;1.35;;
84517;SDS011;74754;43.386;0.044;2024-03-08T11:14:46;5.40;;;1.88;;
84517;SDS011;74754;43.386;0.044;2024-03-08T11:17:59;4.95;;;1.98;;
84517;SDS011;74754;43.386;0.044;2024-03-08T11:20:04;1.40;;;1.20;;
84517;SDS011;74754;43.386;0.044;2024-03-08T11:22:40;1.73;;;1.38;;
84517;SDS011;74754;43.386;0.044;2024-03-08T11:25:10;3.03;;;1.50;;
84517;SDS011;74754;43.386;0.044;2024-03-08T11:28:29;3.38;;;1.10;;
84517;SDS011;74754;43.386;0.044;2024-03-08T11:33:35;2.03;;;1.50;;
84517;SDS011;74754;43.386;0.044;2024-03-08T11:38:42;2.45;;;1.45;;
84517;SDS011;74754;43.386;0.044;2024-03-08T11:41:09;4.50;;;2.00;;
84517;SDS011;74754;43.386;0.044;2024-03-08T11:43:39;1.40;;;1.30;;
84517;SDS011;74754;43.386;0.044;2024-03-08T11:46:12;2.50;;;1.25;;
84517;SDS011;74754;43.386;0.044;2024-03-08T11:48:42;4.05;;;1.42;;
84517;SDS011;74754;43.386;0.044;2024-03-08T11:51:09;2.58;;;1.45;;
84517;SDS011;74754;43.386;0.044;2024-03-08T11:53:37;1.50;;;0.70;;
84517;SDS011;74754;43.386;0.044;2024-03-08T11:58:32;5.90;;;1.50;;
84517;SDS011;74754;43.386;0.044;2024-03-08T12:03:24;1.40;;;0.88;;
84517;SDS011;74754;43.386;0.044;2024-03-08T12:05:56;2.25;;;0.85;;
84517;SDS011;74754;43.386;0.044;2024-03-08T12:08:24;1.65;;;1.15;;
84517;SDS011;74754;43.386;0.044;2024-03-08T12:10:53;1.23;;;0.60;;
84517;SDS011;74754;43.386;0.044;2024-03-08T12:13:27;1.60;;;1.00;;
84517;SDS011;74754;43.386;0.044;2024-03-08T12:15:57;1.70;;;1.13;;
84517;SDS011;74754;43.386;0.044;2024-03-08T12:18:26;5.25;;;1.00;;
84517;SDS011;74754;43.386;0.044;2024-03-08T12:21:09;2.22;;;1.10;;
84517;SDS011;74754;43.386;0.044;2024-03-08T12:23:42;1.65;;;0.90;;
84517;SDS011;74754;43.386;0.044;2024-03-08T12:26:18;2.00;;;0.77;;
84517;SDS011;74754;43.386;0.044;2024-03-08T12:28:51;1.63;;;0.85;;
84517;SDS011;74754;43.386;0.044;2024-03-08T12:31:17;2.67;;;0.90;;
84517;SDS011;74754;43.386;0.044;2024-03-08T12:36:15;1.25;;;0.82;;
84517;SDS011;74754;43.386;0.044;2024-03-08T12:38:45;1.20;;;0.80;;
84517;SDS011;74754;43.386;0.044;2024-03-08T12:41:14;2.95;;;0.85;;
84517;SDS011;74754;43.386;0.044;2024-03-08T12:43:42;1.63;;;1.10;;
84517;SDS011;74754;43.386;0.044;2024-03-08T12:46:14;1.90;;;1.20;;
84517;SDS011;74754;43.386;0.044;2024-03-08T12:48:40;2.20;;;0.80;;
84517;SDS011;74754;43.386;0.044;2024-03-08T12:51:06;1.58;;;0.98;;
84517;SDS011;74754;43.386;0.044;2024-03-08T12:53:34;1.10;;;0.88;;
84517;SDS011;74754;43.386;0.044;2024-03-08T12:58:26;1.48;;;1.00;;
84517;SDS011;74754;43.386;0.044;2024-03-08T13:00:52;2.03;;;0.82;;
84517;SDS011;74754;43.386;0.044;2024-03-08T13:03:18;2.15;;;0.98;;
84517;SDS011;74754;43.386;0.044;2024-03-08T13:05:44;2.85;;;0.93;;
84517;SDS011;74754;43.386;0.044;2024-03-08T13:10:40;1.88;;;1.00;;
84517;SDS011;74754;43.386;0.044;2024-03-08T13:13:10;5.45;;;1.08;;
84517;SDS011;74754;43.386;0.044;2024-03-08T13:15:37;1.38;;;0.70;;
84517;SDS011;74754;43.386;0.044;2024-03-08T13:20:30;2.30;;;1.08;;
84517;SDS011;74754;43.386;0.044;2024-03-08T13:25:25;1.02;;;0.52;;
84517;SDS011;74754;43.386;0.044;2024-03-08T13:30:19;0.98;;;0.52;;
84517;SDS011;74754;43.386;0.044;2024-03-08T13:32:49;1.38;;;0.80;;
84517;SDS011;74754;43.386;0.044;2024-03-08T13:35:17;0.95;;;0.60;;
84517;SDS011;74754;43.386;0.044;2024-03-08T13:37:49;0.88;;;0.60;;
84517;SDS011;74754;43.386;0.044;2024-03-08T13:40:17;1.02;;;0.50;;
84517;SDS011;74754;43.386;0.044;2024-03-08T13:42:46;0.90;;;0.50;;
84517;SDS011;74754;43.386;0.044;2024-03-08T13:45:14;1.33;;;0.70;;
84517;SDS011;74754;43.386;0.044;2024-03-08T13:47:43;1.90;;;0.80;;
84517;SDS011;74754;43.386;0.044;2024-03-08T13:50:10;1.00;;;0.60;;
84517;SDS011;74754;43.386;0.044;2024-03-08T13:52:46;0.95;;;0.80;;
84517;SDS011;74754;43.386;0.044;2024-03-08T13:55:12;1.27;;;0.80;;
84517;SDS011;74754;43.386;0.044;2024-03-08T13:57:39;0.80;;;0.50;;
84517;SDS011;74754;43.386;0.044;2024-03-08T14:00:06;2.03;;;0.90;;
84517;SDS011;74754;43.386;0.044;2024-03-08T14:02:32;2.10;;;0.73;;
84517;SDS011;74754;43.386;0.044;2024-03-08T14:04:58;1.85;;;0.90;;
84517;SDS011;74754;43.386;0.044;2024-03-08T14:07:26;1.65;;;0.50;;
84517;SDS011;74754;43.386;0.044;2024-03-08T14:09:54;1.73;;;0.90;;
84517;SDS011;74754;43.386;0.044;2024-03-08T14:14:46;1.40;;;0.70;;
84517;SDS011;74754;43.386;0.044;2024-03-08T14:17:12;6.15;;;0.55;;
84517;SDS011;74754;43.386;0.044;2024-03-08T14:19:42;0.60;;;0.60;;
84517;SDS011;74754;43.386;0.044;2024-03-08T14:24:39;1.77;;;0.65;;
84517;SDS011;74754;43.386;0.044;2024-03-08T14:29:33;1.15;;;0.60;;
84517;SDS011;74754;43.386;0.044;2024-03-08T14:34:26;3.43;;;0.80;;
84517;SDS011;74754;43.386;0.044;2024-03-08T14:36:54;1.40;;;0.90;;
84517;SDS011;74754;43.386;0.044;2024-03-08T14:39:20;2.45;;;0.73;;
84517;SDS011;74754;43.386;0.044;2024-03-08T14:41:49;2.85;;;0.85;;
84517;SDS011;74754;43.386;0.044;2024-03-08T14:44:19;1.40;;;0.70;;
84517;SDS011;74754;43.386;0.044;2024-03-08T14:46:46;2.38;;;0.73;;
84517;SDS011;74754;43.386;0.044;2024-03-08T14:49:12;1.02;;;0.65;;
84517;SDS011;74754;43.386;0.044;2024-03-08T14:51:38;1.52;;;0.60;;
84517;SDS011;74754;43.386;0.044;2024-03-08T14:54:05;1.13;;;0.68;;
84517;SDS011;74754;43.386;0.044;2024-03-08T14:56:32;2.65;;;0.80;;
84517;SDS011;74754;43.386;0.044;2024-03-08T14:58:58;1.20;;;1.10;;
84517;SDS011;74754;43.386;0.044;2024-03-08T15:03:54;1.30;;;1.20;;
84517;SDS011;74754;43.386;0.044;2024-03-08T15:06:20;2.22;;;2.00;;
84517;SDS011;74754;43.386;0.044;2024-03-08T15:08:47;1.33;;;0.98;;
84517;SDS011;74754;43.386;0.044;2024-03-08T15:13:47;1.67;;;1.20;;
84517;SDS011;74754;43.386;0.044;2024-03-08T15:16:16;1.35;;;1.15;;
84517;SDS011;74754;43.386;0.044;2024-03-08T15:18:43;0.93;;;0.82;;
84517;SDS011;74754;43.386;0.044;2024-03-08T15:21:11;2.35;;;1.17;;
84517;SDS011;74754;43.386;0.044;2024-03-08T15:23:42;1.40;;;0.90;;
84517;SDS011;74754;43.386;0.044;2024-03-08T15:26:12;0.85;;;0.70;;
84517;SDS011;74754;43.386;0.044;2024-03-08T15:28:38;0.63;;;0.60;;
84517;SDS011;74754;43.386;0.044;2024-03-08T15:31:05;4.07;;;0.75;;
84517;SDS011;74754;43.386;0.044;2024-03-08T15:33:35;1.60;;;0.82;;
84517;SDS011;74754;43.386;0.044;2024-03-08T15:36:10;2.47;;;0.70;;
84517;SDS011;74754;43.386;0.044;2024-03-08T15:38:38;7.65;;;2.20;;
84517;SDS011;74754;43.386;0.044;2024-03-08T15:41:05;1.92;;;1.13;;
84517;SDS011;74754;43.386;0.044;2024-03-08T15:43:35;2.17;;;0.80;;
84517;SDS011;74754;43.386;0.044;2024-03-08T15:46:02;1.25;;;0.77;;
84517;SDS011;74754;43.386;0.044;2024-03-08T15:48:30;3.22;;;1.00;;
84517;SDS011;74754;43.386;0.044;2024-03-08T15:50:56;1.30;;;0.90;;
84517;SDS011;74754;43.386;0.044;2024-03-08T15:53:22;8.63;;;1.02;;
84517;SDS011;74754;43.386;0.044;2024-03-08T15:58:15;2.00;;;1.15;;
84517;SDS011;74754;43.386;0.044;2024-03-08T16:03:14;2.15;;;1.30;;
84517;SDS011;74754;43.386;0.044;2024-03-08T16:05:41;1.70;;;1.60;;
84517;SDS011;74754;43.386;0.044;2024-03-08T16:08:07;1.70;;;1.60;;
84517;SDS011;74754;43.386;0.044;2024-03-08T16:10:46;3.10;;;1.35;;
84517;SDS011;74754;43.386;0.044;2024-03-08T16:13:19;1.70;;;1.60;;
84517;SDS011;74754;43.386;0.044;2024-03-08T16:15:48;6.70;;;2.95;;
84517;SDS011;74754;43.386;0.044;2024-03-08T16:18:15;2.67;;;2.47;;
84517;SDS011;74754;43.386;0.044;2024-03-08T16:20:42;2.42;;;2.22;;
84517;SDS011;74754;43.386;0.044;2024-03-08T16:23:14;5.95;;;1.90;;
84517;SDS011;74754;43.386;0.044;2024-03-08T16:25:41;4.38;;;3.97;;
84517;SDS011;74754;43.386;0.044;2024-03-08T16:28:08;8.57;;;2.67;;